| time (UTC) | temp C | wind direction | speed KPH | gust KPH | rain 1hr cm | rain 24hr cm | rain mn cm | humidity % | barometer mb |
| 20260504151015 | 8 | 0 | 3.2 | 6.4 | 0.00 | 0.03 | 0.00 | 41 | 1013.0 |
| 20260504150520 | 7 | 208 | 0.0 | 6.4 | 0.00 | 0.03 | 0.00 | 42 | 1012.9 |
| 20260504141026 | 7 | 264 | 1.6 | 11.3 | 0.00 | 0.03 | 0.00 | 46 | 1012.7 |
| 20260504140519 | 7 | 277 | 3.2 | 11.3 | 0.00 | 0.03 | 0.00 | 46 | 1012.7 |
| 20260504130516 | 7 | 47 | 4.8 | 12.9 | 0.00 | 0.03 | 0.00 | 47 | 1011.8 |
| 20260504110516 | 9 | 120 | 3.2 | 17.7 | 0.00 | 0.03 | 0.00 | 41 | 1009.8 |
| 20260504100520 | 11 | 256 | 1.6 | 4.8 | 0.00 | 0.03 | 0.00 | 35 | 1007.2 |
| 20260504081539 | 11 | 254 | 3.2 | 4.8 | 0.00 | 0.03 | 0.00 | 34 | 1006.8 |
| 20260504081018 | 11 | 253 | 1.6 | 4.8 | 0.00 | 0.03 | 0.00 | 35 | 1006.7 |
| 20260504080524 | 11 | 0 | 1.6 | 4.8 | 0.00 | 0.03 | 0.00 | 35 | 1006.8 |
| 20260504050517 | 11 | 224 | 1.6 | 6.4 | 0.00 | 0.03 | 0.03 | 37 | 1007.9 |
| 20260504045516 | 12 | 273 | 0.0 | 4.8 | 0.00 | 0.03 | 0.03 | 36 | 1008.0 |
| 20260504045021 | 12 | 273 | 0.0 | 4.8 | 0.00 | 0.03 | 0.03 | 35 | 1008.1 |
| 20260504044532 | 12 | 273 | 1.6 | 4.8 | 0.00 | 0.03 | 0.03 | 35 | 1008.1 |
| 20260504044014 | 12 | 273 | 1.6 | 4.8 | 0.00 | 0.03 | 0.03 | 35 | 1008.2 |
| 20260504043518 | 12 | 0 | 0.0 | 4.8 | 0.00 | 0.03 | 0.03 | 35 | 1008.2 |
| 20260504043045 | 12 | 273 | 1.6 | 6.4 | 0.00 | 0.03 | 0.03 | 34 | 1008.3 |
| 20260504042518 | 13 | 273 | 1.6 | 6.4 | 0.00 | 0.03 | 0.03 | 34 | 1008.3 |
| 20260504042017 | 13 | 274 | 3.2 | 6.4 | 0.00 | 0.03 | 0.03 | 34 | 1008.3 |
| 20260504041536 | 13 | 272 | 3.2 | 6.4 | 0.00 | 0.03 | 0.03 | 34 | 1008.3 |
| 20260504041017 | 13 | 273 | 1.6 | 6.4 | 0.00 | 0.03 | 0.03 | 33 | 1008.3 |
| 20260504040514 | 13 | 0 | 1.6 | 4.8 | 0.00 | 0.03 | 0.03 | 33 | 1008.4 |
| 20260504040034 | 13 | 272 | 1.6 | 6.4 | 0.00 | 0.03 | 0.03 | 32 | 1008.4 |
| 20260504035517 | 13 | 272 | 1.6 | 11.3 | 0.00 | 0.03 | 0.03 | 32 | 1008.5 |
| 20260504035014 | 13 | 265 | 4.8 | 11.3 | 0.00 | 0.03 | 0.03 | 32 | 1008.5 |
| 20260504034545 | 13 | 284 | 3.2 | 11.3 | 0.00 | 0.03 | 0.03 | 32 | 1008.5 |
| 20260504034017 | 13 | 312 | 3.2 | 9.7 | 0.00 | 0.03 | 0.03 | 32 | 1008.4 |
| 20260504033517 | 13 | 266 | 3.2 | 9.7 | 0.00 | 0.03 | 0.03 | 32 | 1008.4 |
| 20260504033032 | 13 | 0 | 0.0 | 3.2 | 0.00 | 0.03 | 0.03 | 32 | 1008.4 |
| 20260504032515 | 13 | 0 | 0.0 | 4.8 | 0.00 | 0.03 | 0.03 | 32 | 1008.4 |
| 20260504032018 | 13 | 0 | 0.0 | 4.8 | 0.00 | 0.03 | 0.03 | 31 | 1008.3 |
| 20260504031544 | 13 | 0 | 0.0 | 4.8 | 0.00 | 0.03 | 0.03 | 32 | 1008.3 |
| 20260504031014 | 14 | 267 | 1.6 | 6.4 | 0.00 | 0.03 | 0.03 | 31 | 1008.3 |
| 20260504030517 | 14 | 267 | 3.2 | 6.4 | 0.00 | 0.03 | 0.03 | 30 | 1008.3 |
| 20260504030041 | 15 | 267 | 1.6 | 9.7 | 0.00 | 0.03 | 0.03 | 29 | 1008.2 |
| 20260504025517 | 15 | 267 | 1.6 | 9.7 | 0.00 | 0.03 | 0.03 | 28 | 1008.3 |
| 20260504025017 | 15 | 267 | 3.2 | 9.7 | 0.00 | 0.03 | 0.03 | 28 | 1008.2 |
| 20260504024535 | 15 | 271 | 0.0 | 4.8 | 0.00 | 0.03 | 0.03 | 29 | 1008.2 |
| 20260504024019 | 15 | 0 | 0.0 | 3.2 | 0.00 | 0.03 | 0.03 | 30 | 1008.1 |
| 20260504023517 | 15 | 0 | 0.0 | 6.4 | 0.00 | 0.03 | 0.03 | 30 | 1008.0 |
| 20260504023032 | 15 | 271 | 3.2 | 6.4 | 0.00 | 0.03 | 0.03 | 30 | 1008.0 |
| 20260504022517 | 15 | 271 | 1.6 | 4.8 | 0.00 | 0.03 | 0.03 | 28 | 1008.0 |
| 20260504022015 | 16 | 0 | 0.0 | 3.2 | 0.00 | 0.03 | 0.03 | 28 | 1007.9 |
| 20260504021544 | 16 | 0 | 0.0 | 6.4 | 0.00 | 0.03 | 0.03 | 28 | 1008.0 |
| 20260504021014 | 16 | 0 | 0.0 | 6.4 | 0.00 | 0.03 | 0.03 | 28 | 1007.9 |
| 20260504020516 | 16 | 272 | 1.6 | 6.4 | 0.00 | 0.03 | 0.03 | 28 | 1007.9 |
| 20260504020037 | 16 | 0 | 0.0 | 3.2 | 0.00 | 0.03 | 0.03 | 28 | 1008.0 |
| 20260504015518 | 16 | 269 | 0.0 | 3.2 | 0.00 | 0.03 | 0.03 | 28 | 1008.1 |
| 20260504015015 | 16 | 0 | 0.0 | 3.2 | 0.00 | 0.03 | 0.03 | 28 | 1008.2 |
| 20260504014534 | 17 | 0 | 0.0 | 4.8 | 0.00 | 0.03 | 0.03 | 27 | 1008.2 |
| 20260504014017 | 17 | 0 | 0.0 | 4.8 | 0.00 | 0.03 | 0.03 | 27 | 1008.2 |
| 20260504013517 | 17 | 0 | 0.0 | 9.7 | 0.00 | 0.03 | 0.03 | 27 | 1008.3 |
| 20260504013036 | 17 | 0 | 1.6 | 9.7 | 0.00 | 0.03 | 0.03 | 26 | 1008.4 |
| 20260504012518 | 17 | 308 | 1.6 | 6.4 | 0.00 | 0.03 | 0.03 | 26 | 1008.5 |
| 20260504012017 | 17 | 0 | 1.6 | 6.4 | 0.00 | 0.03 | 0.03 | 26 | 1008.6 |
| 20260504011533 | 17 | 0 | 0.0 | 4.8 | 0.00 | 0.03 | 0.03 | 25 | 1008.5 |
| 20260504011021 | 18 | 0 | 0.0 | 4.8 | 0.00 | 0.03 | 0.03 | 24 | 1008.7 |
| 20260504010516 | 18 | 27 | 1.6 | 4.8 | 0.00 | 0.03 | 0.03 | 24 | 1008.7 |
| 20260504010036 | 18 | 0 | 0.0 | 4.8 | 0.00 | 0.03 | 0.03 | 23 | 1008.8 |
| 20260504005517 | 19 | 47 | 0.0 | 11.3 | 0.00 | 0.03 | 0.03 | 23 | 1008.9 |
| 20260504005016 | 19 | 61 | 0.0 | 11.3 | 0.00 | 0.03 | 0.03 | 22 | 1008.9 |
| 20260504004542 | 20 | 306 | 0.0 | 9.7 | 0.00 | 0.03 | 0.03 | 21 | 1008.9 |
| 20260504004019 | 20 | 269 | 3.2 | 9.7 | 0.00 | 0.03 | 0.03 | 21 | 1008.9 |
| 20260504003516 | 20 | 19 | 1.6 | 4.8 | 0.00 | 0.03 | 0.03 | 20 | 1009.1 |
| 20260504003034 | 20 | 288 | 1.6 | 14.5 | 0.00 | 0.03 | 0.03 | 20 | 1009.1 |
| 20260504002516 | 20 | 338 | 1.6 | 16.1 | 0.00 | 0.03 | 0.03 | 20 | 1009.1 |
| 20260504002016 | 20 | 269 | 4.8 | 16.1 | 0.00 | 0.03 | 0.03 | 20 | 1009.1 |
| 20260504001540 | 20 | 243 | 1.6 | 11.3 | 0.00 | 0.03 | 0.03 | 19 | 1009.3 |
| 20260504001015 | 20 | 0 | 4.8 | 12.9 | 0.00 | 0.03 | 0.03 | 20 | 1009.3 |
| 20260504000517 | 20 | 265 | 1.6 | 19.3 | 0.00 | 0.03 | 0.03 | 20 | 1009.4 |
| 20260504000031 | 20 | 68 | 1.6 | 24.1 | 0.00 | 0.03 | 0.03 | 21 | 1009.4 |
| 20260503235519 | 19 | 285 | 9.7 | 24.1 | 0.00 | 0.03 | 0.03 | 21 | 1009.6 |
| 20260503235017 | 19 | 258 | 12.9 | 24.1 | 0.00 | 0.03 | 0.03 | 24 | 1009.5 |
| 20260503234539 | 19 | 271 | 6.4 | 16.1 | 0.00 | 0.03 | 0.03 | 23 | 1009.4 |
| 20260503234017 | 18 | 10 | 3.2 | 16.1 | 0.00 | 0.03 | 0.03 | 23 | 1009.4 |
| 20260503233518 | 19 | 282 | 8.0 | 19.3 | 0.00 | 0.03 | 0.03 | 23 | 1009.5 |
| 20260503233036 | 19 | 0 | 4.8 | 19.3 | 0.00 | 0.03 | 0.03 | 23 | 1009.6 |
| 20260503232518 | 19 | 234 | 11.3 | 25.7 | 0.00 | 0.03 | 0.03 | 24 | 1009.9 |
| 20260503232018 | 19 | 234 | 11.3 | 25.7 | 0.00 | 0.03 | 0.03 | 24 | 1009.9 |
| 20260503231532 | 19 | 206 | 11.3 | 24.1 | 0.00 | 0.03 | 0.03 | 25 | 1010.0 |
| 20260503231018 | 19 | 239 | 3.2 | 24.1 | 0.00 | 0.03 | 0.03 | 28 | 1010.1 |
| 20260503230517 | 19 | 208 | 8.0 | 17.7 | 0.00 | 0.03 | 0.03 | 26 | 1010.2 |
| 20260503230043 | 19 | 228 | 9.7 | 17.7 | 0.00 | 0.03 | 0.03 | 26 | 1010.2 |
| 20260503225516 | 18 | 236 | 6.4 | 17.7 | 0.00 | 0.03 | 0.03 | 26 | 1010.2 |
| 20260503225016 | 18 | 236 | 8.0 | 20.9 | 0.00 | 0.03 | 0.03 | 26 | 1010.2 |
| 20260503224533 | 18 | 216 | 9.7 | 20.9 | 0.00 | 0.03 | 0.03 | 27 | 1010.4 |
| 20260503224019 | 18 | 217 | 6.4 | 14.5 | 0.00 | 0.03 | 0.03 | 29 | 1010.5 |
| 20260503223522 | 18 | 236 | 8.0 | 14.5 | 0.00 | 0.03 | 0.03 | 32 | 1010.5 |
| 20260503223036 | 18 | 236 | 6.4 | 14.5 | 0.00 | 0.03 | 0.03 | 32 | 1010.7 |
| 20260503222516 | 17 | 238 | 4.8 | 12.9 | 0.00 | 0.03 | 0.03 | 35 | 1010.8 |
| 20260503222013 | 17 | 213 | 8.0 | 12.9 | 0.00 | 0.03 | 0.03 | 35 | 1011.0 |
| 20260503221543 | 17 | 207 | 4.8 | 16.1 | 0.00 | 0.03 | 0.03 | 35 | 1011.1 |
| 20260503221017 | 17 | 270 | 8.0 | 16.1 | 0.00 | 0.03 | 0.03 | 36 | 1011.3 |
| 20260503220517 | 16 | 202 | 6.4 | 16.1 | 0.00 | 0.03 | 0.03 | 38 | 1011.3 |
| 20260503220038 | 16 | 232 | 8.0 | 16.1 | 0.00 | 0.03 | 0.03 | 39 | 1011.5 |
| 20260503215518 | 16 | 247 | 8.0 | 16.1 | 0.00 | 0.03 | 0.03 | 38 | 1011.6 |
| 20260503215014 | 16 | 239 | 6.4 | 14.5 | 0.00 | 0.03 | 0.03 | 42 | 1011.6 |
| 20260503214546 | 15 | 256 | 6.4 | 14.5 | 0.00 | 0.03 | 0.03 | 44 | 1011.8 |
| 20260503214017 | 15 | 260 | 4.8 | 14.5 | 0.00 | 0.03 | 0.03 | 44 | 1011.8 |
| 20260503213518 | 15 | 238 | 8.0 | 19.3 | 0.00 | 0.03 | 0.03 | 46 | 1011.9 |
| 20260503213035 | 14 | 246 | 9.7 | 19.3 | 0.00 | 0.03 | 0.03 | 48 | 1012.0 |
| 20260503212517 | 14 | 250 | 8.0 | 17.7 | 0.00 | 0.03 | 0.03 | 52 | 1012.2 |
| 20260503212018 | 13 | 218 | 8.0 | 14.5 | 0.00 | 0.03 | 0.03 | 51 | 1012.3 |
| 20260503211531 | 13 | 216 | 8.0 | 14.5 | 0.00 | 0.03 | 0.03 | 56 | 1012.5 |
| 20260503211017 | 13 | 190 | 3.2 | 17.7 | 0.00 | 0.03 | 0.03 | 53 | 1012.5 |
| 20260503210515 | 13 | 238 | 8.0 | 17.7 | 0.03 | 0.03 | 0.03 | 51 | 1013.0 |
| 20260503210032 | 13 | 254 | 6.4 | 14.5 | 0.03 | 0.03 | 0.03 | 54 | 1013.1 |
| 20260503205519 | 13 | 234 | 4.8 | 16.1 | 0.03 | 0.03 | 0.03 | 57 | 1013.1 |
| 20260503205021 | 13 | 205 | 6.4 | 16.1 | 0.03 | 0.03 | 0.03 | 57 | 1013.3 |
| 20260503204539 | 13 | 232 | 4.8 | 11.3 | 0.03 | 0.03 | 0.03 | 60 | 1013.2 |
| 20260503204017 | 12 | 241 | 6.4 | 11.3 | 0.03 | 0.03 | 0.03 | 59 | 1013.1 |
| 20260503203521 | 12 | 222 | 4.8 | 12.9 | 0.03 | 0.03 | 0.03 | 64 | 1013.1 |
| 20260503203031 | 11 | 228 | 3.2 | 12.9 | 0.03 | 0.03 | 0.03 | 63 | 1013.3 |
| 20260503202519 | 11 | 223 | 6.4 | 12.9 | 0.03 | 0.03 | 0.03 | 60 | 1013.5 |
| 20260503202017 | 11 | 231 | 1.6 | 11.3 | 0.03 | 0.03 | 0.03 | 58 | 1013.5 |
| 20260503201535 | 11 | 276 | 3.2 | 17.7 | 0.03 | 0.03 | 0.03 | 60 | 1013.6 |
| 20260503201016 | 11 | 248 | 8.0 | 20.9 | 0.03 | 0.03 | 0.03 | 60 | 1013.8 |
| 20260503200517 | 11 | 229 | 12.9 | 20.9 | 0.00 | 0.00 | 0.00 | 57 | 1014.2 |
| 20260503200037 | 12 | 261 | 4.8 | 12.9 | 0.00 | 0.00 | 0.00 | 49 | 1014.2 |
| 20260503195515 | 12 | 44 | 1.6 | 12.9 | 0.00 | 0.00 | 0.00 | 51 | 1014.0 |
| 20260503195018 | 13 | 320 | 1.6 | 16.1 | 0.00 | 0.00 | 0.00 | 50 | 1013.9 |
| 20260503194540 | 13 | 57 | 3.2 | 16.1 | 0.00 | 0.00 | 0.00 | 46 | 1013.8 |
| 20260503194018 | 15 | 38 | 6.4 | 16.1 | 0.00 | 0.00 | 0.00 | 39 | 1014.0 |
| 20260503193515 | 16 | 355 | 4.8 | 12.9 | 0.00 | 0.00 | 0.00 | 34 | 1013.9 |
| 20260503193035 | 16 | 304 | 4.8 | 16.1 | 0.00 | 0.00 | 0.00 | 31 | 1013.7 |
| 20260503192517 | 17 | 260 | 6.4 | 16.1 | 0.00 | 0.00 | 0.00 | 28 | 1013.4 |
| 20260503192014 | 17 | 254 | 8.0 | 14.5 | 0.00 | 0.00 | 0.00 | 28 | 1013.4 |
| 20260503191534 | 17 | 290 | 1.6 | 11.3 | 0.00 | 0.00 | 0.00 | 29 | 1013.3 |
| 20260503191018 | 17 | 68 | 1.6 | 17.7 | 0.00 | 0.00 | 0.00 | 32 | 1013.4 |
| 20260503190518 | 17 | 98 | 6.4 | 17.7 | 0.00 | 0.00 | 0.00 | 26 | 1013.4 |
| 20260503190039 | 18 | 290 | 8.0 | 17.7 | 0.00 | 0.00 | 0.00 | 27 | 1013.5 |
| 20260503185518 | 18 | 95 | 4.8 | 19.3 | 0.00 | 0.00 | 0.00 | 26 | 1013.5 |
| 20260503185020 | 18 | 306 | 8.0 | 19.3 | 0.00 | 0.00 | 0.00 | 25 | 1013.6 |
| 20260503184531 | 18 | 80 | 6.4 | 20.9 | 0.00 | 0.00 | 0.00 | 28 | 1013.7 |
| 20260503184014 | 18 | 267 | 8.0 | 20.9 | 0.00 | 0.00 | 0.00 | 28 | 1014.0 |
| 20260503183517 | 18 | 63 | 3.2 | 14.5 | 0.00 | 0.00 | 0.00 | 28 | 1014.0 |
| 20260503183040 | 18 | 288 | 3.2 | 14.5 | 0.00 | 0.00 | 0.00 | 29 | 1014.1 |
| 20260503182517 | 17 | 55 | 4.8 | 14.5 | 0.00 | 0.00 | 0.00 | 28 | 1014.2 |
| 20260503182015 | 16 | 55 | 3.2 | 16.1 | 0.00 | 0.00 | 0.00 | 29 | 1014.3 |
| 20260503181552 | 16 | 260 | 4.8 | 16.1 | 0.00 | 0.00 | 0.00 | 31 | 1014.3 |
| 20260503181017 | 16 | 229 | 4.8 | 16.1 | 0.00 | 0.00 | 0.00 | 31 | 1014.5 |
| 20260503180516 | 16 | 0 | 0.0 | 16.1 | 0.00 | 0.00 | 0.00 | 34 | 1014.7 |
| 20260503180045 | 16 | 90 | 6.4 | 16.1 | 0.00 | 0.00 | 0.00 | 33 | 1014.8 |
| 20260503175521 | 16 | 85 | 4.8 | 16.1 | 0.00 | 0.00 | 0.00 | 31 | 1014.9 |
| 20260503175018 | 16 | 38 | 8.0 | 16.1 | 0.00 | 0.00 | 0.00 | 32 | 1014.9 |
| 20260503174531 | 16 | 38 | 3.2 | 17.7 | 0.00 | 0.00 | 0.00 | 34 | 1015.0 |
| 20260503174017 | 16 | 227 | 4.8 | 17.7 | 0.00 | 0.00 | 0.00 | 32 | 1015.0 |
| 20260503173517 | 16 | 278 | 6.4 | 17.7 | 0.00 | 0.00 | 0.00 | 30 | 1015.0 |
| 20260503173036 | 16 | 89 | 3.2 | 19.3 | 0.00 | 0.00 | 0.00 | 32 | 1015.2 |
| 20260503172514 | 17 | 93 | 8.0 | 19.3 | 0.00 | 0.00 | 0.00 | 31 | 1015.1 |
| 20260503172017 | 17 | 71 | 8.0 | 20.9 | 0.00 | 0.00 | 0.00 | 32 | 1015.1 |
| 20260503171534 | 17 | 53 | 11.3 | 20.9 | 0.00 | 0.00 | 0.00 | 31 | 1015.2 |
| 20260503171017 | 17 | 113 | 6.4 | 17.7 | 0.00 | 0.00 | 0.00 | 32 | 1015.2 |
| 20260503170516 | 16 | 94 | 3.2 | 14.5 | 0.00 | 0.00 | 0.00 | 31 | 1015.3 |